Time;durP1;ratioP1;P1;durP2;ratioP2;P2;SDS_P1;SDS_P2;PMS_P1;PMS_P2;Temp;Humidity;BMP_temperature;BMP_pressure;BME280_temperature;BME280_humidity;BME280_pressure;Samples;Min_cycle;Max_cycle;Signal;HPM_P1;HPM_P2
2022/02/27 00:05:52;;;;;;;0.80;0.10;;;-2.70;72.10;;;;;;20980439;28;20553;-57
2022/02/27 00:15:55;;;;;;;0.75;0.10;;;-3.00;74.40;;;;;;20978886;28;20484;-59
2022/02/27 00:25:57;;;;;;;0.10;0.03;;;-3.10;74.00;;;;;;20978438;28;20445;-66
2022/02/27 00:36:00;;;;;;;0.50;0.10;;;-3.30;76.10;;;;;;21034181;28;20097;-63
2022/02/27 00:46:07;;;;;;;0.47;0.10;;;-3.70;75.00;;;;;;21061274;28;20458;-58
2022/02/27 00:56:13;;;;;;;1.15;0.10;;;-3.40;75.20;;;;;;21047916;28;20622;-62
2022/02/27 01:06:17;;;;;;;1.38;0.10;;;-3.50;74.50;;;;;;21076746;28;20036;-63
2022/02/27 01:16:21;;;;;;;0.10;0.05;;;-2.90;71.50;;;;;;21076178;28;20483;-63
2022/02/27 01:26:24;;;;;;;0.50;0.20;;;-2.90;70.90;;;;;;21075276;28;20058;-61
2022/02/27 01:36:26;;;;;;;0.30;0.10;;;-2.90;71.20;;;;;;21074192;28;20036;-62
2022/02/27 01:46:28;;;;;;;0.10;0.08;;;-3.00;71.90;;;;;;21073739;28;20527;-62
2022/02/27 01:56:31;;;;;;;1.00;0.20;;;-3.20;74.20;;;;;;21072832;28;20036;-60
2022/02/27 02:06:35;;;;;;;0.47;0.10;;;-3.70;76.50;;;;;;21056133;28;20032;-61
2022/02/27 02:16:50;;;;;;;0.38;0.10;;;-3.50;75.50;;;;;;21031829;28;20033;-59
2022/02/27 02:26:54;;;;;;;0.22;0.10;;;-3.70;76.60;;;;;;20987735;28;20101;-65
2022/02/27 02:36:57;;;;;;;1.13;0.32;;;-3.80;75.50;;;;;;21044082;28;20078;-52
2022/02/27 02:47:00;;;;;;;0.10;0.00;;;-3.70;75.00;;;;;;20985537;28;20392;-54
2022/02/27 02:57:04;;;;;;;1.55;0.10;;;-3.40;72.50;;;;;;20984734;28;20052;-54
2022/02/27 03:07:06;;;;;;;0.43;0.20;;;-3.30;71.90;;;;;;20984110;28;20117;-53
2022/02/27 03:17:09;;;;;;;1.45;0.50;;;-3.40;73.30;;;;;;20982283;28;20613;-53
2022/02/27 03:27:12;;;;;;;0.65;0.10;;;-3.40;73.50;;;;;;20966285;28;20040;-53
2022/02/27 03:37:15;;;;;;;1.40;0.20;;;-3.60;74.00;;;;;;21048087;28;20094;-53
2022/02/27 03:47:17;;;;;;;0.85;0.25;;;-3.80;75.20;;;;;;21065990;28;20352;-53
2022/02/27 03:57:20;;;;;;;0.95;0.10;;;-3.90;75.60;;;;;;21064276;28;20051;-55
2022/02/27 04:07:22;;;;;;;0.95;0.10;;;-4.00;75.00;;;;;;21063127;28;20039;-56
2022/02/27 04:17:25;;;;;;;0.60;0.10;;;-3.90;75.90;;;;;;21062578;28;20036;-52
2022/02/27 04:27:28;;;;;;;0.68;0.08;;;-3.90;73.30;;;;;;21062699;28;20040;-54
2022/02/27 04:37:30;;;;;;;1.08;0.10;;;-3.70;71.90;;;;;;21077099;28;20036;-55
2022/02/27 04:47:33;;;;;;;0.30;0.10;;;-3.60;71.80;;;;;;21078666;28;20069;-57
2022/02/27 04:57:36;;;;;;;0.30;0.17;;;-3.40;71.00;;;;;;21078326;28;20113;-52
2022/02/27 05:07:38;;;;;;;1.20;0.17;;;-3.50;70.60;;;;;;21078073;28;20036;-54
2022/02/27 05:17:41;;;;;;;0.50;0.10;;;-3.30;70.00;;;;;;21076072;28;20082;-54
2022/02/27 05:27:47;;;;;;;1.38;0.20;;;-3.40;69.70;;;;;;21075660;28;20035;-52
2022/02/27 05:37:49;;;;;;;2.78;0.20;;;-3.20;68.70;;;;;;21074479;28;20336;-52
2022/02/27 05:47:52;;;;;;;0.60;0.30;;;-3.20;68.90;;;;;;21072745;28;20036;-53
2022/02/27 05:57:54;;;;;;;0.50;0.20;;;-3.30;70.40;;;;;;21072863;28;20113;-53
2022/02/27 06:07:57;;;;;;;0.93;0.20;;;-3.50;70.50;;;;;;21072456;28;20062;-52
2022/02/27 06:17:59;;;;;;;0.47;0.10;;;-3.50;70.80;;;;;;21071231;28;20062;-52
2022/02/27 06:28:04;;;;;;;0.20;0.10;;;-3.40;69.50;;;;;;21055612;28;20396;-56
2022/02/27 06:38:06;;;;;;;0.68;0.10;;;-3.30;68.50;;;;;;21069665;28;20449;-56
2022/02/27 06:48:09;;;;;;;0.65;0.05;;;-3.10;67.30;;;;;;21069651;28;20391;-54
2022/02/27 06:58:12;;;;;;;0.63;0.20;;;-3.00;67.60;;;;;;21068546;28;20814;-56
2022/02/27 07:08:15;;;;;;;1.52;0.20;;;-2.80;67.90;;;;;;21067667;28;20024;-52
2022/02/27 07:18:18;;;;;;;0.40;0.00;;;-2.60;65.70;;;;;;21066684;28;20408;-54
2022/02/27 07:28:21;;;;;;;0.10;0.10;;;-2.30;64.50;;;;;;21066305;28;20505;-54
2022/02/27 07:38:23;;;;;;;1.42;0.30;;;-1.80;64.30;;;;;;21048260;28;20066;-55
2022/02/27 07:48:29;;;;;;;2.33;0.30;;;-1.60;64.90;;;;;;21064741;28;20403;-55
2022/02/27 07:58:31;;;;;;;0.80;0.25;;;-1.40;64.20;;;;;;21046727;28;20048;-57
2022/02/27 08:08:34;;;;;;;1.48;0.20;;;-1.00;64.50;;;;;;21062407;28;20085;-57
2022/02/27 08:18:36;;;;;;;0.95;0.10;;;-0.80;64.10;;;;;;21062231;28;20424;-54
2022/02/27 08:28:40;;;;;;;0.22;0.08;;;-0.50;63.00;;;;;;21062696;28;20036;-54
2022/02/27 08:38:43;;;;;;;0.63;0.20;;;0.00;64.20;;;;;;21061662;28;20340;-58
2022/02/27 08:48:46;;;;;;;0.77;0.13;;;0.40;61.40;;;;;;21043551;28;20556;-57
2022/02/27 08:58:49;;;;;;;1.00;0.20;;;0.40;59.70;;;;;;21018391;28;20049;-58
2022/02/27 09:08:51;;;;;;;1.25;0.25;;;0.70;59.60;;;;;;20977302;28;20533;-56
2022/02/27 09:18:54;;;;;;;0.35;0.15;;;0.90;59.10;;;;;;20984725;28;20093;-58
2022/02/27 09:28:57;;;;;;;0.40;0.10;;;1.10;58.10;;;;;;20991648;28;20037;-57
2022/02/27 09:38:59;;;;;;;0.13;0.00;;;1.40;57.00;;;;;;21071163;28;20082;-59
2022/02/27 09:49:04;;;;;;;0.10;0.10;;;1.50;56.20;;;;;;21057999;28;20035;-57
2022/02/27 09:59:07;;;;;;;0.20;0.10;;;1.60;54.10;;;;;;21073316;28;20044;-57
2022/02/27 10:09:22;;;;;;;1.10;0.10;;;1.70;55.60;;;;;;21057611;28;20036;-58
2022/02/27 10:19:24;;;;;;;0.25;0.10;;;2.20;54.30;;;;;;21071505;28;20036;-59
2022/02/27 10:29:27;;;;;;;0.57;0.10;;;2.10;54.10;;;;;;21071339;28;20066;-58
2022/02/27 10:39:39;;;;;;;1.25;0.10;;;2.20;52.90;;;;;;21069960;28;20040;-56
2022/02/27 10:49:42;;;;;;;0.17;0.00;;;2.30;52.80;;;;;;21069663;28;20484;-57
2022/02/27 10:59:45;;;;;;;0.15;0.10;;;2.70;51.70;;;;;;21067851;28;20040;-58
2022/02/27 11:09:49;;;;;;;1.10;0.10;;;2.90;51.40;;;;;;21067728;28;20093;-59
2022/02/27 11:19:53;;;;;;;0.15;0.10;;;2.90;51.20;;;;;;21066914;28;20040;-55
2022/02/27 11:29:58;;;;;;;0.43;0.20;;;3.10;49.90;;;;;;21065588;28;20077;-57
2022/02/27 11:40:28;;;;;;;0.35;0.10;;;3.00;48.80;;;;;;21063376;28;20441;-58
2022/02/27 11:50:44;;;;;;;0.57;0.30;;;3.40;48.40;;;;;;21047363;28;20044;-57
2022/02/27 12:00:58;;;;;;;0.30;0.10;;;3.20;49.20;;;;;;21064001;28;20044;-54
2022/02/27 12:11:02;;;;;;;0.47;0.10;;;3.30;49.20;;;;;;21063440;28;20445;-59
2022/02/27 12:21:08;;;;;;;0.60;0.13;;;3.40;49.00;;;;;;21063254;28;20036;-57
2022/02/27 12:31:16;;;;;;;0.22;0.10;;;3.80;48.40;;;;;;21062622;28;20032;-56
2022/02/27 12:41:20;;;;;;;0.88;0.13;;;3.90;47.80;;;;;;21061918;28;20480;-58
2022/02/27 12:51:24;;;;;;;0.40;0.10;;;4.10;50.70;;;;;;21063879;28;20513;-57
2022/02/27 13:01:31;;;;;;;1.13;0.28;;;3.80;47.80;;;;;;21077688;28;20044;-60
2022/02/27 13:11:43;;;;;;;0.40;0.20;;;4.30;49.00;;;;;;21076917;28;20054;-59
2022/02/27 13:21:49;;;;;;;0.45;0.20;;;4.30;47.80;;;;;;21077068;28;20054;-60
2022/02/27 13:31:51;;;;;;;1.75;0.15;;;3.70;46.70;;;;;;21076039;28;20028;-60
2022/02/27 13:41:55;;;;;;;0.55;0.17;;;4.50;46.50;;;;;;21074280;28;20044;-59
2022/02/27 13:52:04;;;;;;;0.40;0.10;;;4.80;49.30;;;;;;21073993;28;20044;-58
2022/02/27 14:02:07;;;;;;;0.55;0.13;;;5.00;48.10;;;;;;21056542;28;20047;-56
2022/02/27 14:12:09;;;;;;;1.75;0.20;;;4.70;49.60;;;;;;21073128;28;20395;-57
2022/02/27 14:22:12;;;;;;;1.55;0.30;;;4.40;50.80;;;;;;21072346;28;20092;-57
2022/02/27 14:32:22;;;;;;;0.68;0.20;;;4.10;51.60;;;;;;21070786;28;20036;-56
2022/02/27 14:42:25;;;;;;;;;;;4.00;56.70;;;;;;21070410;28;20051;-58
2022/02/27 14:52:29;;;;;;;0.20;0.10;;;3.70;56.90;;;;;;21069920;28;20252;-57
2022/02/27 15:02:37;;;;;;;0.20;0.20;;;3.30;54.20;;;;;;21068190;28;20108;-59
2022/02/27 15:12:42;;;;;;;0.35;0.20;;;3.00;56.80;;;;;;20974499;28;20048;-58
2022/02/27 15:22:45;;;;;;;1.50;0.40;;;2.90;59.00;;;;;;20957072;28;20113;-54
2022/02/27 15:32:47;;;;;;;1.67;0.40;;;2.70;58.40;;;;;;20927698;28;20041;-55
2022/02/27 15:42:51;;;;;;;1.73;0.40;;;2.50;58.70;;;;;;20886833;28;20040;-58
2022/02/27 15:52:54;;;;;;;2.65;0.50;;;2.10;62.30;;;;;;20980048;28;20134;-55
2022/02/27 16:02:58;;;;;;;1.70;0.47;;;1.40;62.00;;;;;;20980438;28;20040;-52
2022/02/27 16:13:01;;;;;;;1.70;0.35;;;0.70;66.30;;;;;;20981190;28;20090;-55
2022/02/27 16:23:04;;;;;;;0.70;0.40;;;0.00;71.10;;;;;;20979592;28;20076;-55
2022/02/27 16:33:07;;;;;;;2.05;0.63;;;-0.60;75.00;;;;;;21007804;28;20069;-57
2022/02/27 16:43:11;;;;;;;2.70;0.52;;;-0.90;76.60;;;;;;21061675;28;20036;-57
2022/02/27 16:53:16;;;;;;;2.40;0.40;;;-1.30;79.20;;;;;;21060866;28;20105;-55
2022/02/27 17:03:19;;;;;;;2.63;0.40;;;-1.60;80.80;;;;;;21061179;28;20044;-56
2022/02/27 17:13:22;;;;;;;0.88;0.50;;;-1.90;81.40;;;;;;21029659;28;20032;-56
2022/02/27 17:23:30;;;;;;;0.57;0.30;;;-2.10;85.80;;;;;;20978941;28;20085;-57
2022/02/27 17:33:33;;;;;;;0.90;0.43;;;-2.40;85.00;;;;;;21011014;28;20091;-57
2022/02/27 17:43:36;;;;;;;1.58;0.40;;;-2.50;84.10;;;;;;21069796;28;20085;-56
2022/02/27 17:53:39;;;;;;;2.60;0.52;;;-2.60;88.00;;;;;;21073483;28;20105;-57
2022/02/27 18:03:42;;;;;;;2.72;0.30;;;-2.70;86.40;;;;;;21073419;28;20439;-55
2022/02/27 18:13:45;;;;;;;2.03;0.60;;;-2.70;87.80;;;;;;21072781;28;20081;-57
2022/02/27 18:23:48;;;;;;;1.25;0.60;;;-2.70;87.70;;;;;;21071851;28;20040;-53
2022/02/27 18:33:52;;;;;;;3.50;1.30;;;-2.70;89.00;;;;;;21053894;28;20040;-56
2022/02/27 18:43:56;;;;;;;1.13;0.57;;;-2.90;87.40;;;;;;21069455;28;20245;-54
2022/02/27 18:54:02;;;;;;;1.05;0.50;;;-3.00;90.00;;;;;;21052277;28;20044;-57
2022/02/27 19:04:08;;;;;;;1.58;0.52;;;-3.10;90.10;;;;;;21068687;28;20548;-56
2022/02/27 19:14:10;;;;;;;2.20;0.73;;;-3.20;90.20;;;;;;21067259;28;20066;-56
2022/02/27 19:24:13;;;;;;;1.92;0.50;;;-3.10;90.10;;;;;;21066419;28;20032;-54
2022/02/27 19:34:15;;;;;;;0.93;0.60;;;-3.20;89.80;;;;;;21066939;28;20376;-53
2022/02/27 19:44:19;;;;;;;1.83;0.75;;;-3.30;91.50;;;;;;21065389;28;20464;-54
2022/02/27 19:54:22;;;;;;;1.63;0.73;;;-3.50;90.60;;;;;;21065036;28;20047;-52
2022/02/27 20:04:26;;;;;;;0.95;0.40;;;-3.40;90.80;;;;;;21063334;28;20040;-51
2022/02/27 20:14:29;;;;;;;1.33;0.57;;;-3.40;91.00;;;;;;21045961;28;20066;-52
2022/02/27 20:24:32;;;;;;;1.63;0.45;;;-3.40;90.60;;;;;;21061753;28;20028;-55
2022/02/27 20:34:35;;;;;;;1.85;0.63;;;-3.40;90.60;;;;;;21042368;28;20424;-61
2022/02/27 20:44:40;;;;;;;1.50;0.85;;;-3.10;89.40;;;;;;21060624;28;20036;-61
2022/02/27 20:54:44;;;;;;;1.05;0.50;;;-3.10;89.60;;;;;;20967478;28;20044;-55
2022/02/27 21:04:47;;;;;;;2.08;0.95;;;-3.00;90.10;;;;;;20952966;28;20080;-54
2022/02/27 21:14:50;;;;;;;2.30;0.90;;;-3.00;90.10;;;;;;20959722;28;20048;-58
2022/02/27 21:24:53;;;;;;;1.73;0.90;;;-3.10;90.10;;;;;;20969048;28;20044;-53
2022/02/27 21:34:55;;;;;;;2.28;1.17;;;-3.10;90.60;;;;;;21015690;28;20040;-54
2022/02/27 21:44:58;;;;;;;2.40;1.30;;;-3.00;90.00;;;;;;21076420;28;20040;-56
2022/02/27 21:55:02;;;;;;;2.80;1.20;;;-2.90;90.50;;;;;;21075605;28;20105;-58
2022/02/27 22:05:06;;;;;;;2.08;1.17;;;-3.00;91.50;;;;;;21074784;28;20112;-57
2022/02/27 22:15:15;;;;;;;4.57;1.08;;;-3.20;91.80;;;;;;21058890;28;20040;-55
2022/02/27 22:25:17;;;;;;;2.13;1.10;;;-3.40;92.40;;;;;;21071945;28;20241;-54
2022/02/27 22:35:20;;;;;;;5.53;1.50;;;-3.50;92.60;;;;;;21036987;28;20040;-58
2022/02/27 22:45:23;;;;;;;3.70;1.30;;;-3.70;93.40;;;;;;21069233;28;20129;-56
2022/02/27 22:55:27;;;;;;;2.38;1.02;;;-3.80;93.70;;;;;;21071037;28;20051;-54
2022/02/27 23:05:30;;;;;;;3.47;1.27;;;-3.80;94.10;;;;;;21070950;28;20040;-57
2022/02/27 23:15:33;;;;;;;2.13;1.00;;;-3.90;93.70;;;;;;21069940;28;20113;-53
2022/02/27 23:25:36;;;;;;;4.65;1.60;;;-3.90;93.70;;;;;;21068821;28;20065;-58
2022/02/27 23:35:39;;;;;;;3.83;1.30;;;-3.90;94.30;;;;;;21052134;28;20032;-54
2022/02/27 23:45:45;;;;;;;3.38;1.30;;;-3.90;94.00;;;;;;21068562;28;20036;-55
2022/02/27 23:55:49;;;;;;;2.65;1.30;;;-3.80;93.80;;;;;;21067029;28;20047;-53
